sensor_id;sensor_type;location;lat;lon;timestamp;P1;durP1;ratioP1;P2;durP2;ratioP2
840;SDS011;406;48.566;13.450;2023-01-01T00:01:54;113.87;;;50.20;;
840;SDS011;406;48.566;13.450;2023-01-01T00:04:20;150.30;;;55.83;;
840;SDS011;406;48.566;13.450;2023-01-01T00:06:45;100.57;;;45.30;;
840;SDS011;406;48.566;13.450;2023-01-01T00:09:11;68.87;;;41.30;;
840;SDS011;406;48.566;13.450;2023-01-01T00:11:55;110.23;;;43.00;;
840;SDS011;406;48.566;13.450;2023-01-01T00:14:20;82.80;;;42.17;;
840;SDS011;406;48.566;13.450;2023-01-01T00:16:46;187.47;;;55.97;;
840;SDS011;406;48.566;13.450;2023-01-01T00:19:12;96.03;;;46.90;;
840;SDS011;406;48.566;13.450;2023-01-01T00:21:37;267.77;;;78.87;;
840;SDS011;406;48.566;13.450;2023-01-01T00:24:04;106.63;;;60.87;;
840;SDS011;406;48.566;13.450;2023-01-01T00:26:31;127.60;;;62.87;;
840;SDS011;406;48.566;13.450;2023-01-01T00:28:56;133.07;;;64.80;;
840;SDS011;406;48.566;13.450;2023-01-01T00:31:22;139.17;;;59.17;;
840;SDS011;406;48.566;13.450;2023-01-01T00:33:52;110.37;;;54.03;;
840;SDS011;406;48.566;13.450;2023-01-01T00:36:19;162.50;;;57.00;;
840;SDS011;406;48.566;13.450;2023-01-01T00:38:46;166.97;;;65.37;;
840;SDS011;406;48.566;13.450;2023-01-01T00:41:11;246.13;;;71.33;;
840;SDS011;406;48.566;13.450;2023-01-01T00:43:38;107.93;;;55.40;;
840;SDS011;406;48.566;13.450;2023-01-01T00:46:04;118.23;;;51.30;;
840;SDS011;406;48.566;13.450;2023-01-01T00:48:30;212.67;;;54.57;;
840;SDS011;406;48.566;13.450;2023-01-01T00:50:55;183.20;;;58.20;;
840;SDS011;406;48.566;13.450;2023-01-01T00:53:21;128.83;;;49.77;;
840;SDS011;406;48.566;13.450;2023-01-01T00:55:48;83.60;;;49.43;;
840;SDS011;406;48.566;13.450;2023-01-01T00:58:15;217.03;;;60.67;;
840;SDS011;406;48.566;13.450;2023-01-01T01:00:41;88.67;;;48.13;;
840;SDS011;406;48.566;13.450;2023-01-01T01:03:08;151.50;;;53.50;;
840;SDS011;406;48.566;13.450;2023-01-01T01:05:37;170.90;;;49.90;;
840;SDS011;406;48.566;13.450;2023-01-01T01:08:02;72.87;;;42.67;;
840;SDS011;406;48.566;13.450;2023-01-01T01:10:28;236.40;;;53.63;;
840;SDS011;406;48.566;13.450;2023-01-01T01:12:54;224.20;;;59.73;;
840;SDS011;406;48.566;13.450;2023-01-01T01:15:19;105.70;;;43.40;;
840;SDS011;406;48.566;13.450;2023-01-01T01:17:45;154.07;;;41.67;;
840;SDS011;406;48.566;13.450;2023-01-01T01:20:11;148.80;;;43.27;;
840;SDS011;406;48.566;13.450;2023-01-01T01:22:37;119.90;;;40.60;;
840;SDS011;406;48.566;13.450;2023-01-01T01:25:03;142.57;;;42.23;;
840;SDS011;406;48.566;13.450;2023-01-01T01:27:29;76.23;;;39.57;;
840;SDS011;406;48.566;13.450;2023-01-01T01:29:55;182.30;;;49.77;;
840;SDS011;406;48.566;13.450;2023-01-01T01:32:20;191.87;;;47.70;;
840;SDS011;406;48.566;13.450;2023-01-01T01:34:46;67.90;;;35.23;;
840;SDS011;406;48.566;13.450;2023-01-01T01:37:12;226.20;;;51.73;;
840;SDS011;406;48.566;13.450;2023-01-01T01:39:38;152.77;;;42.57;;
840;SDS011;406;48.566;13.450;2023-01-01T01:42:03;69.17;;;33.03;;
840;SDS011;406;48.566;13.450;2023-01-01T01:47:16;53.40;;;31.93;;
840;SDS011;406;48.566;13.450;2023-01-01T01:49:47;112.87;;;34.03;;
840;SDS011;406;48.566;13.450;2023-01-01T01:52:13;138.30;;;42.40;;
840;SDS011;406;48.566;13.450;2023-01-01T01:54:39;71.07;;;33.70;;
840;SDS011;406;48.566;13.450;2023-01-01T01:57:06;58.30;;;34.13;;
840;SDS011;406;48.566;13.450;2023-01-01T01:59:34;79.20;;;34.63;;
840;SDS011;406;48.566;13.450;2023-01-01T02:02:01;69.50;;;34.93;;
840;SDS011;406;48.566;13.450;2023-01-01T02:04:26;65.80;;;34.40;;
840;SDS011;406;48.566;13.450;2023-01-01T02:06:52;48.93;;;30.17;;
840;SDS011;406;48.566;13.450;2023-01-01T02:09:19;66.43;;;33.63;;
840;SDS011;406;48.566;13.450;2023-01-01T02:11:45;53.53;;;31.90;;
840;SDS011;406;48.566;13.450;2023-01-01T02:14:10;40.97;;;29.93;;
840;SDS011;406;48.566;13.450;2023-01-01T02:16:37;150.60;;;32.33;;
840;SDS011;406;48.566;13.450;2023-01-01T02:19:08;65.60;;;27.80;;
840;SDS011;406;48.566;13.450;2023-01-01T02:21:38;47.63;;;28.03;;
840;SDS011;406;48.566;13.450;2023-01-01T02:24:20;68.07;;;29.20;;
840;SDS011;406;48.566;13.450;2023-01-01T02:26:59;94.40;;;36.50;;
840;SDS011;406;48.566;13.450;2023-01-01T02:29:44;66.03;;;33.43;;
840;SDS011;406;48.566;13.450;2023-01-01T02:32:17;50.37;;;25.93;;
840;SDS011;406;48.566;13.450;2023-01-01T02:34:56;60.93;;;26.47;;
840;SDS011;406;48.566;13.450;2023-01-01T02:37:44;55.73;;;27.13;;
840;SDS011;406;48.566;13.450;2023-01-01T02:40:12;50.93;;;25.23;;
840;SDS011;406;48.566;13.450;2023-01-01T02:42:38;61.60;;;29.00;;
840;SDS011;406;48.566;13.450;2023-01-01T02:45:03;90.63;;;26.30;;
840;SDS011;406;48.566;13.450;2023-01-01T02:47:30;34.00;;;23.80;;
840;SDS011;406;48.566;13.450;2023-01-01T02:50:02;56.80;;;33.70;;
840;SDS011;406;48.566;13.450;2023-01-01T02:52:41;33.77;;;25.30;;
840;SDS011;406;48.566;13.450;2023-01-01T02:58:10;45.33;;;24.63;;
840;SDS011;406;48.566;13.450;2023-01-01T03:01:12;36.97;;;28.00;;
840;SDS011;406;48.566;13.450;2023-01-01T03:04:08;43.07;;;29.00;;
840;SDS011;406;48.566;13.450;2023-01-01T03:06:38;92.45;;;29.00;;
840;SDS011;406;48.566;13.450;2023-01-01T03:09:26;45.43;;;29.27;;
840;SDS011;406;48.566;13.450;2023-01-01T03:12:02;74.67;;;31.73;;
840;SDS011;406;48.566;13.450;2023-01-01T03:17:10;53.80;;;31.27;;
840;SDS011;406;48.566;13.450;2023-01-01T03:19:39;116.70;;;36.07;;
840;SDS011;406;48.566;13.450;2023-01-01T03:22:06;125.50;;;37.00;;
840;SDS011;406;48.566;13.450;2023-01-01T03:24:35;49.83;;;31.00;;
840;SDS011;406;48.566;13.450;2023-01-01T03:27:08;57.10;;;29.37;;
840;SDS011;406;48.566;13.450;2023-01-01T03:29:38;45.73;;;27.90;;
840;SDS011;406;48.566;13.450;2023-01-01T03:32:05;68.03;;;30.23;;
840;SDS011;406;48.566;13.450;2023-01-01T03:34:36;68.23;;;30.50;;
840;SDS011;406;48.566;13.450;2023-01-01T03:37:06;38.20;;;23.97;;
840;SDS011;406;48.566;13.450;2023-01-01T03:39:34;35.08;;;24.35;;
840;SDS011;406;48.566;13.450;2023-01-01T03:42:20;41.78;;;24.08;;
840;SDS011;406;48.566;13.450;2023-01-01T03:44:51;49.13;;;24.23;;
840;SDS011;406;48.566;13.450;2023-01-01T03:47:18;50.60;;;24.60;;
840;SDS011;406;48.566;13.450;2023-01-01T03:49:44;28.83;;;22.27;;
840;SDS011;406;48.566;13.450;2023-01-01T04:00:22;28.90;;;21.67;;
840;SDS011;406;48.566;13.450;2023-01-01T04:02:53;60.70;;;27.90;;
840;SDS011;406;48.566;13.450;2023-01-01T04:05:20;33.93;;;20.93;;
840;SDS011;406;48.566;13.450;2023-01-01T04:07:48;42.80;;;23.43;;
840;SDS011;406;48.566;13.450;2023-01-01T04:10:14;35.10;;;21.17;;
840;SDS011;406;48.566;13.450;2023-01-01T04:12:44;84.03;;;26.33;;
840;SDS011;406;48.566;13.450;2023-01-01T04:15:10;31.40;;;21.75;;
840;SDS011;406;48.566;13.450;2023-01-01T04:17:36;68.33;;;25.27;;
840;SDS011;406;48.566;13.450;2023-01-01T04:20:02;57.30;;;22.30;;
840;SDS011;406;48.566;13.450;2023-01-01T04:22:28;56.80;;;25.73;;
840;SDS011;406;48.566;13.450;2023-01-01T04:24:53;52.83;;;25.37;;
840;SDS011;406;48.566;13.450;2023-01-01T04:27:19;64.37;;;24.67;;
840;SDS011;406;48.566;13.450;2023-01-01T04:29:44;69.23;;;25.10;;
840;SDS011;406;48.566;13.450;2023-01-01T04:32:10;41.93;;;25.53;;
840;SDS011;406;48.566;13.450;2023-01-01T04:34:35;43.93;;;24.53;;
840;SDS011;406;48.566;13.450;2023-01-01T04:37:01;43.33;;;23.97;;
840;SDS011;406;48.566;13.450;2023-01-01T04:39:26;42.77;;;23.90;;
840;SDS011;406;48.566;13.450;2023-01-01T04:41:52;51.40;;;23.93;;
840;SDS011;406;48.566;13.450;2023-01-01T04:44:17;60.30;;;26.07;;
840;SDS011;406;48.566;13.450;2023-01-01T04:46:43;45.47;;;23.40;;
840;SDS011;406;48.566;13.450;2023-01-01T04:49:08;44.03;;;21.83;;
840;SDS011;406;48.566;13.450;2023-01-01T04:51:34;126.03;;;33.57;;
840;SDS011;406;48.566;13.450;2023-01-01T04:53:59;29.67;;;21.20;;
840;SDS011;406;48.566;13.450;2023-01-01T04:56:26;37.33;;;21.85;;
840;SDS011;406;48.566;13.450;2023-01-01T04:58:51;36.30;;;21.80;;
840;SDS011;406;48.566;13.450;2023-01-01T05:01:20;61.50;;;23.57;;
840;SDS011;406;48.566;13.450;2023-01-01T05:03:47;64.17;;;23.40;;
840;SDS011;406;48.566;13.450;2023-01-01T05:06:13;29.20;;;18.87;;
840;SDS011;406;48.566;13.450;2023-01-01T05:08:40;35.45;;;19.70;;
840;SDS011;406;48.566;13.450;2023-01-01T05:11:11;39.67;;;19.17;;
840;SDS011;406;48.566;13.450;2023-01-01T05:13:39;43.77;;;21.80;;
840;SDS011;406;48.566;13.450;2023-01-01T05:16:06;60.30;;;19.57;;
840;SDS011;406;48.566;13.450;2023-01-01T05:18:34;81.40;;;20.23;;
840;SDS011;406;48.566;13.450;2023-01-01T05:21:01;50.72;;;20.23;;
840;SDS011;406;48.566;13.450;2023-01-01T05:23:30;50.17;;;19.93;;
840;SDS011;406;48.566;13.450;2023-01-01T05:25:55;33.50;;;18.57;;
840;SDS011;406;48.566;13.450;2023-01-01T05:28:21;48.83;;;19.33;;
840;SDS011;406;48.566;13.450;2023-01-01T05:30:48;49.07;;;20.40;;
840;SDS011;406;48.566;13.450;2023-01-01T05:33:17;34.77;;;17.90;;
840;SDS011;406;48.566;13.450;2023-01-01T05:35:42;25.83;;;17.27;;
840;SDS011;406;48.566;13.450;2023-01-01T05:38:08;47.73;;;21.30;;
840;SDS011;406;48.566;13.450;2023-01-01T05:40:37;31.13;;;18.92;;
840;SDS011;406;48.566;13.450;2023-01-01T05:43:03;46.17;;;22.10;;
840;SDS011;406;48.566;13.450;2023-01-01T05:45:28;51.03;;;21.13;;
840;SDS011;406;48.566;13.450;2023-01-01T05:47:54;39.73;;;19.47;;
840;SDS011;406;48.566;13.450;2023-01-01T05:50:20;82.00;;;24.93;;
840;SDS011;406;48.566;13.450;2023-01-01T05:52:46;41.67;;;22.03;;
840;SDS011;406;48.566;13.450;2023-01-01T05:55:11;51.57;;;21.50;;
840;SDS011;406;48.566;13.450;2023-01-01T05:57:37;42.63;;;19.40;;
840;SDS011;406;48.566;13.450;2023-01-01T06:00:02;50.47;;;19.50;;
840;SDS011;406;48.566;13.450;2023-01-01T06:02:31;21.83;;;16.50;;
840;SDS011;406;48.566;13.450;2023-01-01T06:04:57;20.23;;;16.37;;
840;SDS011;406;48.566;13.450;2023-01-01T06:07:22;23.03;;;15.50;;
840;SDS011;406;48.566;13.450;2023-01-01T06:09:48;17.77;;;14.57;;
840;SDS011;406;48.566;13.450;2023-01-01T06:12:13;20.20;;;15.83;;
840;SDS011;406;48.566;13.450;2023-01-01T06:14:39;19.03;;;15.97;;
840;SDS011;406;48.566;13.450;2023-01-01T06:17:04;38.43;;;19.30;;
840;SDS011;406;48.566;13.450;2023-01-01T06:19:30;18.30;;;14.23;;
840;SDS011;406;48.566;13.450;2023-01-01T06:21:55;21.93;;;15.57;;
840;SDS011;406;48.566;13.450;2023-01-01T06:24:21;70.70;;;19.37;;
840;SDS011;406;48.566;13.450;2023-01-01T06:26:46;22.40;;;16.40;;
840;SDS011;406;48.566;13.450;2023-01-01T06:29:12;46.67;;;17.07;;
840;SDS011;406;48.566;13.450;2023-01-01T06:31:37;64.90;;;23.93;;
840;SDS011;406;48.566;13.450;2023-01-01T06:34:03;75.53;;;21.10;;
840;SDS011;406;48.566;13.450;2023-01-01T06:36:28;58.70;;;20.27;;
840;SDS011;406;48.566;13.450;2023-01-01T06:38:54;43.30;;;19.00;;
840;SDS011;406;48.566;13.450;2023-01-01T06:41:22;73.40;;;23.00;;
840;SDS011;406;48.566;13.450;2023-01-01T06:43:48;37.53;;;18.90;;
840;SDS011;406;48.566;13.450;2023-01-01T06:46:21;23.53;;;15.50;;
840;SDS011;406;48.566;13.450;2023-01-01T06:49:02;19.40;;;15.57;;
840;SDS011;406;48.566;13.450;2023-01-01T06:51:31;23.70;;;17.23;;
840;SDS011;406;48.566;13.450;2023-01-01T06:53:58;23.63;;;17.45;;
840;SDS011;406;48.566;13.450;2023-01-01T06:56:24;31.80;;;17.33;;
840;SDS011;406;48.566;13.450;2023-01-01T06:58:50;21.30;;;16.50;;
840;SDS011;406;48.566;13.450;2023-01-01T07:01:17;22.47;;;17.50;;
840;SDS011;406;48.566;13.450;2023-01-01T07:03:44;50.05;;;19.80;;
840;SDS011;406;48.566;13.450;2023-01-01T07:06:14;30.17;;;17.87;;
840;SDS011;406;48.566;13.450;2023-01-01T07:08:40;44.97;;;22.27;;
840;SDS011;406;48.566;13.450;2023-01-01T07:11:05;34.83;;;17.67;;
840;SDS011;406;48.566;13.450;2023-01-01T07:13:31;31.30;;;18.40;;
840;SDS011;406;48.566;13.450;2023-01-01T07:15:58;42.50;;;19.30;;
840;SDS011;406;48.566;13.450;2023-01-01T07:18:23;30.27;;;17.57;;
840;SDS011;406;48.566;13.450;2023-01-01T07:20:50;69.53;;;18.70;;
840;SDS011;406;48.566;13.450;2023-01-01T07:23:18;38.97;;;18.08;;
840;SDS011;406;48.566;13.450;2023-01-01T07:25:44;34.80;;;17.00;;
840;SDS011;406;48.566;13.450;2023-01-01T07:28:10;59.20;;;20.80;;
840;SDS011;406;48.566;13.450;2023-01-01T07:30:36;32.80;;;17.37;;
840;SDS011;406;48.566;13.450;2023-01-01T07:33:02;23.50;;;16.37;;
840;SDS011;406;48.566;13.450;2023-01-01T07:35:27;28.57;;;15.90;;
840;SDS011;406;48.566;13.450;2023-01-01T07:37:53;20.30;;;16.10;;
840;SDS011;406;48.566;13.450;2023-01-01T07:40:18;24.53;;;16.23;;
840;SDS011;406;48.566;13.450;2023-01-01T07:42:44;20.20;;;14.97;;
840;SDS011;406;48.566;13.450;2023-01-01T07:45:11;24.40;;;15.93;;
840;SDS011;406;48.566;13.450;2023-01-01T07:47:37;19.17;;;15.07;;
840;SDS011;406;48.566;13.450;2023-01-01T07:50:02;24.20;;;14.47;;
840;SDS011;406;48.566;13.450;2023-01-01T07:52:28;33.63;;;15.37;;
840;SDS011;406;48.566;13.450;2023-01-01T07:54:53;25.70;;;15.23;;
840;SDS011;406;48.566;13.450;2023-01-01T07:57:19;41.17;;;15.83;;
840;SDS011;406;48.566;13.450;2023-01-01T07:59:44;41.40;;;15.70;;
840;SDS011;406;48.566;13.450;2023-01-01T08:02:11;31.07;;;16.47;;
840;SDS011;406;48.566;13.450;2023-01-01T08:04:37;86.13;;;17.80;;
840;SDS011;406;48.566;13.450;2023-01-01T08:07:03;88.83;;;20.90;;
840;SDS011;406;48.566;13.450;2023-01-01T08:09:28;67.63;;;14.43;;
840;SDS011;406;48.566;13.450;2023-01-01T08:11:54;86.60;;;19.30;;
840;SDS011;406;48.566;13.450;2023-01-01T08:14:22;62.97;;;18.95;;
840;SDS011;406;48.566;13.450;2023-01-01T08:16:49;56.28;;;18.75;;
840;SDS011;406;48.566;13.450;2023-01-01T08:19:15;129.43;;;24.53;;
840;SDS011;406;48.566;13.450;2023-01-01T08:21:40;54.47;;;18.43;;
840;SDS011;406;48.566;13.450;2023-01-01T08:24:06;61.23;;;18.33;;
840;SDS011;406;48.566;13.450;2023-01-01T08:26:32;60.23;;;19.37;;
840;SDS011;406;48.566;13.450;2023-01-01T08:29:00;73.75;;;19.33;;
840;SDS011;406;48.566;13.450;2023-01-01T08:31:27;87.27;;;18.20;;
840;SDS011;406;48.566;13.450;2023-01-01T08:33:52;35.60;;;15.70;;
840;SDS011;406;48.566;13.450;2023-01-01T08:36:18;36.37;;;16.00;;
840;SDS011;406;48.566;13.450;2023-01-01T08:38:45;30.45;;;15.73;;
840;SDS011;406;48.566;13.450;2023-01-01T08:41:10;73.47;;;17.60;;
840;SDS011;406;48.566;13.450;2023-01-01T08:43:36;114.60;;;20.53;;
840;SDS011;406;48.566;13.450;2023-01-01T08:46:01;36.70;;;15.60;;
840;SDS011;406;48.566;13.450;2023-01-01T08:48:27;35.67;;;15.30;;
840;SDS011;406;48.566;13.450;2023-01-01T08:50:53;25.87;;;13.83;;
840;SDS011;406;48.566;13.450;2023-01-01T08:53:19;23.10;;;13.60;;
840;SDS011;406;48.566;13.450;2023-01-01T08:55:44;47.50;;;15.43;;
840;SDS011;406;48.566;13.450;2023-01-01T08:58:10;39.57;;;15.10;;
840;SDS011;406;48.566;13.450;2023-01-01T09:00:35;45.00;;;13.53;;
840;SDS011;406;48.566;13.450;2023-01-01T09:03:00;21.60;;;11.87;;
840;SDS011;406;48.566;13.450;2023-01-01T09:05:26;18.83;;;11.73;;
840;SDS011;406;48.566;13.450;2023-01-01T09:07:52;14.43;;;11.10;;
840;SDS011;406;48.566;13.450;2023-01-01T09:10:17;23.00;;;11.90;;
840;SDS011;406;48.566;13.450;2023-01-01T09:12:43;20.40;;;12.60;;
840;SDS011;406;48.566;13.450;2023-01-01T09:15:13;22.67;;;13.40;;
840;SDS011;406;48.566;13.450;2023-01-01T09:17:40;19.17;;;12.77;;
840;SDS011;406;48.566;13.450;2023-01-01T09:20:07;31.00;;;13.17;;
840;SDS011;406;48.566;13.450;2023-01-01T09:22:34;36.90;;;11.80;;
840;SDS011;406;48.566;13.450;2023-01-01T09:24:59;29.17;;;13.10;;
840;SDS011;406;48.566;13.450;2023-01-01T09:27:25;27.33;;;12.23;;
840;SDS011;406;48.566;13.450;2023-01-01T09:29:50;15.00;;;11.23;;
840;SDS011;406;48.566;13.450;2023-01-01T09:32:16;13.23;;;10.27;;
840;SDS011;406;48.566;13.450;2023-01-01T09:34:42;14.23;;;11.83;;
840;SDS011;406;48.566;13.450;2023-01-01T09:37:08;37.07;;;12.57;;
840;SDS011;406;48.566;13.450;2023-01-01T09:39:33;15.93;;;12.70;;
840;SDS011;406;48.566;13.450;2023-01-01T09:44:52;17.10;;;11.57;;
840;SDS011;406;48.566;13.450;2023-01-01T09:47:24;15.27;;;11.63;;
840;SDS011;406;48.566;13.450;2023-01-01T09:50:12;14.60;;;12.40;;
840;SDS011;406;48.566;13.450;2023-01-01T09:52:45;22.30;;;12.90;;
840;SDS011;406;48.566;13.450;2023-01-01T09:58:23;19.27;;;12.30;;
840;SDS011;406;48.566;13.450;2023-01-01T10:00:52;39.33;;;13.50;;
840;SDS011;406;48.566;13.450;2023-01-01T10:03:25;17.27;;;12.60;;
840;SDS011;406;48.566;13.450;2023-01-01T10:06:17;15.30;;;12.97;;
840;SDS011;406;48.566;13.450;2023-01-01T10:11:55;13.70;;;11.70;;
840;SDS011;406;48.566;13.450;2023-01-01T10:14:27;15.30;;;11.27;;
840;SDS011;406;48.566;13.450;2023-01-01T10:16:56;13.43;;;10.90;;
840;SDS011;406;48.566;13.450;2023-01-01T10:19:26;15.87;;;13.43;;
840;SDS011;406;48.566;13.450;2023-01-01T10:21:57;14.83;;;11.83;;
840;SDS011;406;48.566;13.450;2023-01-01T10:24:36;15.83;;;11.53;;
840;SDS011;406;48.566;13.450;2023-01-01T10:27:05;15.57;;;10.63;;
840;SDS011;406;48.566;13.450;2023-01-01T10:32:18;14.10;;;11.40;;
840;SDS011;406;48.566;13.450;2023-01-01T10:34:45;16.27;;;12.50;;
840;SDS011;406;48.566;13.450;2023-01-01T10:37:11;15.33;;;12.20;;
840;SDS011;406;48.566;13.450;2023-01-01T10:39:37;17.50;;;12.40;;
840;SDS011;406;48.566;13.450;2023-01-01T10:42:03;16.67;;;11.90;;
840;SDS011;406;48.566;13.450;2023-01-01T10:44:29;14.87;;;12.93;;
840;SDS011;406;48.566;13.450;2023-01-01T10:46:57;13.50;;;11.30;;
840;SDS011;406;48.566;13.450;2023-01-01T10:49:24;16.10;;;13.10;;
840;SDS011;406;48.566;13.450;2023-01-01T10:51:50;15.27;;;12.97;;
840;SDS011;406;48.566;13.450;2023-01-01T10:54:36;18.23;;;13.60;;
840;SDS011;406;48.566;13.450;2023-01-01T10:57:13;20.53;;;16.80;;
840;SDS011;406;48.566;13.450;2023-01-01T10:59:41;22.93;;;15.80;;
840;SDS011;406;48.566;13.450;2023-01-01T11:04:40;16.97;;;14.83;;
840;SDS011;406;48.566;13.450;2023-01-01T11:07:05;18.17;;;14.47;;
840;SDS011;406;48.566;13.450;2023-01-01T11:09:31;19.00;;;13.00;;
840;SDS011;406;48.566;13.450;2023-01-01T11:12:04;18.23;;;14.27;;
840;SDS011;406;48.566;13.450;2023-01-01T11:14:36;16.40;;;13.23;;
840;SDS011;406;48.566;13.450;2023-01-01T11:17:03;15.47;;;13.77;;
840;SDS011;406;48.566;13.450;2023-01-01T11:19:29;16.27;;;13.23;;
840;SDS011;406;48.566;13.450;2023-01-01T11:21:58;17.73;;;13.10;;
840;SDS011;406;48.566;13.450;2023-01-01T11:24:25;19.07;;;14.27;;
840;SDS011;406;48.566;13.450;2023-01-01T11:26:52;18.57;;;13.20;;
840;SDS011;406;48.566;13.450;2023-01-01T11:29:27;17.00;;;13.50;;
840;SDS011;406;48.566;13.450;2023-01-01T11:31:53;18.50;;;14.00;;
840;SDS011;406;48.566;13.450;2023-01-01T11:37:06;15.53;;;13.53;;
840;SDS011;406;48.566;13.450;2023-01-01T11:39:43;18.70;;;14.33;;
840;SDS011;406;48.566;13.450;2023-01-01T11:42:15;19.33;;;14.23;;
840;SDS011;406;48.566;13.450;2023-01-01T11:44:50;16.23;;;12.70;;
840;SDS011;406;48.566;13.450;2023-01-01T11:47:22;16.03;;;12.47;;
840;SDS011;406;48.566;13.450;2023-01-01T11:50:25;17.60;;;13.57;;
840;SDS011;406;48.566;13.450;2023-01-01T11:56:06;22.03;;;13.90;;
840;SDS011;406;48.566;13.450;2023-01-01T12:01:04;19.63;;;14.53;;
840;SDS011;406;48.566;13.450;2023-01-01T12:03:39;15.90;;;13.40;;
840;SDS011;406;48.566;13.450;2023-01-01T12:06:21;16.10;;;13.03;;
840;SDS011;406;48.566;13.450;2023-01-01T12:08:53;15.50;;;13.13;;
840;SDS011;406;48.566;13.450;2023-01-01T12:11:30;17.33;;;13.63;;
840;SDS011;406;48.566;13.450;2023-01-01T12:13:59;14.70;;;12.80;;
840;SDS011;406;48.566;13.450;2023-01-01T12:16:40;16.10;;;13.33;;
840;SDS011;406;48.566;13.450;2023-01-01T12:19:30;17.87;;;13.20;;
840;SDS011;406;48.566;13.450;2023-01-01T12:21:59;17.53;;;13.60;;
840;SDS011;406;48.566;13.450;2023-01-01T12:24:27;16.87;;;13.50;;
840;SDS011;406;48.566;13.450;2023-01-01T12:29:44;18.00;;;14.07;;
840;SDS011;406;48.566;13.450;2023-01-01T12:32:24;16.77;;;12.73;;
840;SDS011;406;48.566;13.450;2023-01-01T12:40:34;14.53;;;11.60;;
840;SDS011;406;48.566;13.450;2023-01-01T12:46:11;13.77;;;12.17;;
840;SDS011;406;48.566;13.450;2023-01-01T12:48:50;17.60;;;14.23;;
840;SDS011;406;48.566;13.450;2023-01-01T12:54:04;16.97;;;11.20;;
840;SDS011;406;48.566;13.450;2023-01-01T12:57:13;15.97;;;11.37;;
840;SDS011;406;48.566;13.450;2023-01-01T12:59:46;13.90;;;11.00;;
840;SDS011;406;48.566;13.450;2023-01-01T13:02:17;17.27;;;12.33;;
840;SDS011;406;48.566;13.450;2023-01-01T13:04:45;12.33;;;11.03;;
840;SDS011;406;48.566;13.450;2023-01-01T13:07:11;13.10;;;10.77;;
840;SDS011;406;48.566;13.450;2023-01-01T13:09:39;15.10;;;11.17;;
840;SDS011;406;48.566;13.450;2023-01-01T13:12:19;13.10;;;9.67;;
840;SDS011;406;48.566;13.450;2023-01-01T13:14:46;12.33;;;10.60;;
840;SDS011;406;48.566;13.450;2023-01-01T13:17:19;11.33;;;9.50;;
840;SDS011;406;48.566;13.450;2023-01-01T13:20:25;14.10;;;10.20;;
840;SDS011;406;48.566;13.450;2023-01-01T13:22:47;12.10;;;10.10;;
840;SDS011;406;48.566;13.450;2023-01-01T13:30:47;15.67;;;9.50;;
840;SDS011;406;48.566;13.450;2023-01-01T13:41:32;13.07;;;10.67;;
840;SDS011;406;48.566;13.450;2023-01-01T13:49:03;12.77;;;9.77;;
840;SDS011;406;48.566;13.450;2023-01-01T13:51:50;11.43;;;9.53;;
840;SDS011;406;48.566;13.450;2023-01-01T13:57:31;12.03;;;10.77;;
840;SDS011;406;48.566;13.450;2023-01-01T14:02:59;13.83;;;11.43;;
840;SDS011;406;48.566;13.450;2023-01-01T14:05:28;14.87;;;11.17;;
840;SDS011;406;48.566;13.450;2023-01-01T14:11:17;17.30;;;11.13;;
840;SDS011;406;48.566;13.450;2023-01-01T14:13:45;11.20;;;9.43;;
840;SDS011;406;48.566;13.450;2023-01-01T14:16:11;11.93;;;9.80;;
840;SDS011;406;48.566;13.450;2023-01-01T14:18:42;12.60;;;11.07;;
840;SDS011;406;48.566;13.450;2023-01-01T14:21:13;18.83;;;11.60;;
840;SDS011;406;48.566;13.450;2023-01-01T14:23:42;12.40;;;9.93;;
840;SDS011;406;48.566;13.450;2023-01-01T14:26:10;14.87;;;13.30;;
840;SDS011;406;48.566;13.450;2023-01-01T14:28:37;12.63;;;11.40;;
840;SDS011;406;48.566;13.450;2023-01-01T14:31:04;13.20;;;10.53;;
840;SDS011;406;48.566;13.450;2023-01-01T14:33:35;14.63;;;11.43;;
840;SDS011;406;48.566;13.450;2023-01-01T14:36:02;17.33;;;12.53;;
840;SDS011;406;48.566;13.450;2023-01-01T14:38:30;13.03;;;11.07;;
840;SDS011;406;48.566;13.450;2023-01-01T14:43:36;15.93;;;11.57;;
840;SDS011;406;48.566;13.450;2023-01-01T14:46:03;14.50;;;10.87;;
840;SDS011;406;48.566;13.450;2023-01-01T14:48:30;13.43;;;10.23;;
840;SDS011;406;48.566;13.450;2023-01-01T14:50:56;11.67;;;9.97;;
840;SDS011;406;48.566;13.450;2023-01-01T14:53:24;14.27;;;10.93;;
840;SDS011;406;48.566;13.450;2023-01-01T14:55:55;12.03;;;9.57;;
840;SDS011;406;48.566;13.450;2023-01-01T14:58:22;10.87;;;9.53;;
840;SDS011;406;48.566;13.450;2023-01-01T15:00:49;11.93;;;10.40;;
840;SDS011;406;48.566;13.450;2023-01-01T15:03:16;11.00;;;8.87;;
840;SDS011;406;48.566;13.450;2023-01-01T15:05:43;11.83;;;9.00;;
840;SDS011;406;48.566;13.450;2023-01-01T15:08:21;11.03;;;9.13;;
840;SDS011;406;48.566;13.450;2023-01-01T15:10:47;11.90;;;10.70;;
840;SDS011;406;48.566;13.450;2023-01-01T15:13:16;12.20;;;8.60;;
840;SDS011;406;48.566;13.450;2023-01-01T15:15:51;14.73;;;9.67;;
840;SDS011;406;48.566;13.450;2023-01-01T15:21:10;13.37;;;10.27;;
840;SDS011;406;48.566;13.450;2023-01-01T15:23:52;13.07;;;9.10;;
840;SDS011;406;48.566;13.450;2023-01-01T15:26:26;12.90;;;10.67;;
840;SDS011;406;48.566;13.450;2023-01-01T15:28:52;13.97;;;10.10;;
840;SDS011;406;48.566;13.450;2023-01-01T15:31:18;10.77;;;8.67;;
840;SDS011;406;48.566;13.450;2023-01-01T15:33:47;10.87;;;9.10;;
840;SDS011;406;48.566;13.450;2023-01-01T15:36:12;12.67;;;7.93;;
840;SDS011;406;48.566;13.450;2023-01-01T15:38:44;11.57;;;8.90;;
840;SDS011;406;48.566;13.450;2023-01-01T15:44:18;17.03;;;8.77;;
840;SDS011;406;48.566;13.450;2023-01-01T15:46:47;15.80;;;9.10;;
840;SDS011;406;48.566;13.450;2023-01-01T15:49:46;13.40;;;9.33;;
840;SDS011;406;48.566;13.450;2023-01-01T15:52:14;14.63;;;9.93;;
840;SDS011;406;48.566;13.450;2023-01-01T15:54:43;14.63;;;10.37;;
840;SDS011;406;48.566;13.450;2023-01-01T15:57:13;12.50;;;9.63;;
840;SDS011;406;48.566;13.450;2023-01-01T15:59:41;12.77;;;8.73;;
840;SDS011;406;48.566;13.450;2023-01-01T16:02:15;16.53;;;10.50;;
840;SDS011;406;48.566;13.450;2023-01-01T16:04:45;11.30;;;9.53;;
840;SDS011;406;48.566;13.450;2023-01-01T16:07:15;15.50;;;10.57;;
840;SDS011;406;48.566;13.450;2023-01-01T16:09:43;15.80;;;9.57;;
840;SDS011;406;48.566;13.450;2023-01-01T16:12:09;13.20;;;9.93;;
840;SDS011;406;48.566;13.450;2023-01-01T16:14:34;17.17;;;11.43;;
840;SDS011;406;48.566;13.450;2023-01-01T16:17:00;14.63;;;9.50;;
840;SDS011;406;48.566;13.450;2023-01-01T16:19:26;11.67;;;8.90;;
840;SDS011;406;48.566;13.450;2023-01-01T16:21:52;21.83;;;9.70;;
840;SDS011;406;48.566;13.450;2023-01-01T16:24:18;9.80;;;7.67;;
840;SDS011;406;48.566;13.450;2023-01-01T16:26:44;13.10;;;9.30;;
840;SDS011;406;48.566;13.450;2023-01-01T16:29:10;10.43;;;8.07;;
840;SDS011;406;48.566;13.450;2023-01-01T16:31:37;13.10;;;9.10;;
840;SDS011;406;48.566;13.450;2023-01-01T16:34:03;11.23;;;8.43;;
840;SDS011;406;48.566;13.450;2023-01-01T16:36:29;13.23;;;9.33;;
840;SDS011;406;48.566;13.450;2023-01-01T16:38:55;13.93;;;8.93;;
840;SDS011;406;48.566;13.450;2023-01-01T16:41:21;14.33;;;9.30;;